Aérodrome :
LOGIN :

S'inscrire | Disclaimer

   EN    FR    IT 

 










Légende :    VFR   VFR Marginal   IFR   IFR Intensif   IFR Très Intensif
Visi : 
Plafond : 
>= 8 km
>= 3000ft
5 à 8 km
1000 à 3000 ft
1500m à 5 km
500 à 1000 ft
800 à 1500m
200 à 500 ft
< 800m
< 200 ft
Symboles :   Orages  Brouillard  Fortes neiges  Fortes précipitations  Vent > 20 kt
SIGMETs :   Divers  Orages  Givrage  Turbulence  Onde Orograph.  Cendres Volcan.







- Altitude de l'aérodrome : 485 ft
- Code IATA : QSA


LELL - Sabadell

DERNIER METAR :
  • 170500Z AUTO VRB02KT 7000 FEW036/// BKN046/// 06/05 Q1015

METARs EXPIRÉS :
  • 170430Z AUTO 00000KT 7000 BKN047 06/05 Q1015
  • 170400Z AUTO 00000KT 6000 FEW036/// OVC045/// 06/05 Q1016
  • 170330Z AUTO 00000KT 6000 SCT036/// BKN044/// 06/05 Q1016
  • 170300Z AUTO VRB01KT 6000 BKN043 06/06 Q1016
  • 170230Z AUTO VRB02KT 7000 FEW025/// BKN043/// 06/06 Q1016

TAF TAF LELL
Valide du 17 à 03h jusqu'au 18 à 03h UTC


170200Z 1703/1803 VRB03KT 9999 FEW040 TX14/1713Z TN02/1707Z
PROB40
TEMPO 1703/1708 3000 BR BKN014
BECMG 1710/1712 12006KT
PROB40
TEMPO 1718/1724 3000 RA BKN020
Pas de NOTAMs connus pour ce terrain.



MET'MAP, la Météo Aéronautique d'un coup d'oeil ! - Copyright ORBIFLY Décembre 2007 - Disclaimer

ORBIFLY MET'MAP TEAM :

Programmation & Développement : Alexandra Zaïnal
Conception & Développement : Baudouin d'Aumeries
Co-Programmation & Développement : Marc-Olivier Méhu
Soutien technique & logistique : Manuel Goepfert

Contact : metmap@orbifly.com




SOURCES & CREDITS :

   NOAA